sensor_id;sensor_type;location;lat;lon;timestamp;P1;durP1;ratioP1;P2;durP2;ratioP2
64011;SDS011;50211;52.768;12.124;2023-07-29T00:00:32;8.38;;;5.05;;
64011;SDS011;50211;52.768;12.124;2023-07-29T00:02:57;7.82;;;5.03;;
64011;SDS011;50211;52.768;12.124;2023-07-29T00:05:23;5.93;;;5.20;;
64011;SDS011;50211;52.768;12.124;2023-07-29T00:07:48;6.68;;;4.78;;
64011;SDS011;50211;52.768;12.124;2023-07-29T00:10:14;9.77;;;5.60;;
64011;SDS011;50211;52.768;12.124;2023-07-29T00:12:41;11.35;;;5.30;;
64011;SDS011;50211;52.768;12.124;2023-07-29T00:15:07;9.68;;;6.35;;
64011;SDS011;50211;52.768;12.124;2023-07-29T00:17:33;9.80;;;5.47;;
64011;SDS011;50211;52.768;12.124;2023-07-29T00:19:58;9.27;;;5.60;;
64011;SDS011;50211;52.768;12.124;2023-07-29T00:22:24;9.02;;;6.07;;
64011;SDS011;50211;52.768;12.124;2023-07-29T00:24:52;8.20;;;5.50;;
64011;SDS011;50211;52.768;12.124;2023-07-29T00:27:20;8.60;;;5.95;;
64011;SDS011;50211;52.768;12.124;2023-07-29T00:29:45;6.35;;;5.15;;
64011;SDS011;50211;52.768;12.124;2023-07-29T00:32:11;9.50;;;5.30;;
64011;SDS011;50211;52.768;12.124;2023-07-29T00:34:37;8.50;;;5.47;;
64011;SDS011;50211;52.768;12.124;2023-07-29T00:37:02;8.88;;;5.63;;
64011;SDS011;50211;52.768;12.124;2023-07-29T00:39:28;7.65;;;5.60;;
64011;SDS011;50211;52.768;12.124;2023-07-29T00:41:54;8.55;;;5.40;;
64011;SDS011;50211;52.768;12.124;2023-07-29T00:44:19;9.40;;;5.90;;
64011;SDS011;50211;52.768;12.124;2023-07-29T00:46:45;6.10;;;4.93;;
64011;SDS011;50211;52.768;12.124;2023-07-29T00:49:11;8.85;;;5.55;;
64011;SDS011;50211;52.768;12.124;2023-07-29T00:51:36;8.85;;;5.03;;
64011;SDS011;50211;52.768;12.124;2023-07-29T00:54:02;10.95;;;4.50;;
64011;SDS011;50211;52.768;12.124;2023-07-29T00:56:27;5.32;;;4.75;;
64011;SDS011;50211;52.768;12.124;2023-07-29T00:58:53;5.95;;;4.53;;
64011;SDS011;50211;52.768;12.124;2023-07-29T01:01:23;6.97;;;4.28;;
64011;SDS011;50211;52.768;12.124;2023-07-29T01:03:49;6.38;;;4.57;;
64011;SDS011;50211;52.768;12.124;2023-07-29T01:06:23;4.53;;;4.13;;
64011;SDS011;50211;52.768;12.124;2023-07-29T01:09:15;5.68;;;4.00;;
64011;SDS011;50211;52.768;12.124;2023-07-29T01:14:46;7.53;;;4.45;;
64011;SDS011;50211;52.768;12.124;2023-07-29T01:17:23;5.53;;;4.18;;
64011;SDS011;50211;52.768;12.124;2023-07-29T01:20:07;6.10;;;3.90;;
64011;SDS011;50211;52.768;12.124;2023-07-29T01:22:34;5.13;;;3.63;;
64011;SDS011;50211;52.768;12.124;2023-07-29T01:25:01;5.22;;;3.55;;
64011;SDS011;50211;52.768;12.124;2023-07-29T01:27:28;4.70;;;3.20;;
64011;SDS011;50211;52.768;12.124;2023-07-29T01:29:54;4.00;;;3.35;;
64011;SDS011;50211;52.768;12.124;2023-07-29T01:37:49;4.53;;;3.58;;
64011;SDS011;50211;52.768;12.124;2023-07-29T01:40:19;3.88;;;2.60;;
64011;SDS011;50211;52.768;12.124;2023-07-29T01:42:47;4.25;;;3.38;;
64011;SDS011;50211;52.768;12.124;2023-07-29T01:45:13;5.32;;;3.25;;
64011;SDS011;50211;52.768;12.124;2023-07-29T01:47:38;5.07;;;3.30;;
64011;SDS011;50211;52.768;12.124;2023-07-29T01:50:06;4.90;;;3.30;;
64011;SDS011;50211;52.768;12.124;2023-07-29T01:52:32;4.47;;;3.40;;
64011;SDS011;50211;52.768;12.124;2023-07-29T01:54:58;6.72;;;4.60;;
64011;SDS011;50211;52.768;12.124;2023-07-29T01:57:23;10.40;;;5.20;;
64011;SDS011;50211;52.768;12.124;2023-07-29T01:59:49;13.88;;;5.68;;
64011;SDS011;50211;52.768;12.124;2023-07-29T02:02:14;13.40;;;6.03;;
64011;SDS011;50211;52.768;12.124;2023-07-29T02:04:40;13.13;;;6.50;;
64011;SDS011;50211;52.768;12.124;2023-07-29T02:07:05;9.18;;;6.10;;
64011;SDS011;50211;52.768;12.124;2023-07-29T02:09:31;9.65;;;6.13;;
64011;SDS011;50211;52.768;12.124;2023-07-29T02:11:56;8.73;;;5.80;;
64011;SDS011;50211;52.768;12.124;2023-07-29T02:14:22;14.75;;;6.22;;
64011;SDS011;50211;52.768;12.124;2023-07-29T02:16:48;10.55;;;6.28;;
64011;SDS011;50211;52.768;12.124;2023-07-29T02:19:14;9.73;;;6.05;;
64011;SDS011;50211;52.768;12.124;2023-07-29T02:21:39;11.55;;;6.40;;
64011;SDS011;50211;52.768;12.124;2023-07-29T02:24:05;10.57;;;6.30;;
64011;SDS011;50211;52.768;12.124;2023-07-29T02:26:31;15.43;;;6.38;;
64011;SDS011;50211;52.768;12.124;2023-07-29T02:28:56;8.70;;;5.45;;
64011;SDS011;50211;52.768;12.124;2023-07-29T02:31:22;8.85;;;5.97;;
64011;SDS011;50211;52.768;12.124;2023-07-29T02:33:49;7.85;;;5.55;;
64011;SDS011;50211;52.768;12.124;2023-07-29T02:36:15;8.45;;;6.00;;
64011;SDS011;50211;52.768;12.124;2023-07-29T02:38:41;7.93;;;5.82;;
64011;SDS011;50211;52.768;12.124;2023-07-29T02:41:07;7.65;;;5.78;;
64011;SDS011;50211;52.768;12.124;2023-07-29T02:43:34;8.02;;;5.70;;
64011;SDS011;50211;52.768;12.124;2023-07-29T02:46:03;7.88;;;5.68;;
64011;SDS011;50211;52.768;12.124;2023-07-29T02:48:29;10.38;;;5.75;;
64011;SDS011;50211;52.768;12.124;2023-07-29T02:50:55;7.50;;;5.47;;
64011;SDS011;50211;52.768;12.124;2023-07-29T02:53:21;6.40;;;4.70;;
64011;SDS011;50211;52.768;12.124;2023-07-29T02:55:47;7.43;;;5.30;;
64011;SDS011;50211;52.768;12.124;2023-07-29T02:58:13;8.70;;;4.60;;
64011;SDS011;50211;52.768;12.124;2023-07-29T03:00:39;7.78;;;5.20;;
64011;SDS011;50211;52.768;12.124;2023-07-29T03:03:06;10.60;;;5.97;;
64011;SDS011;50211;52.768;12.124;2023-07-29T03:05:33;9.50;;;5.82;;
64011;SDS011;50211;52.768;12.124;2023-07-29T03:07:58;6.55;;;4.88;;
64011;SDS011;50211;52.768;12.124;2023-07-29T03:10:24;8.52;;;5.57;;
64011;SDS011;50211;52.768;12.124;2023-07-29T03:12:50;9.00;;;5.45;;
64011;SDS011;50211;52.768;12.124;2023-07-29T03:15:16;12.93;;;5.95;;
64011;SDS011;50211;52.768;12.124;2023-07-29T03:17:41;46.40;;;6.07;;
64011;SDS011;50211;52.768;12.124;2023-07-29T03:20:07;6.30;;;4.70;;
64011;SDS011;50211;52.768;12.124;2023-07-29T03:22:33;26.33;;;5.57;;
64011;SDS011;50211;52.768;12.124;2023-07-29T03:24:58;29.70;;;4.95;;
64011;SDS011;50211;52.768;12.124;2023-07-29T03:27:24;31.63;;;5.07;;
64011;SDS011;50211;52.768;12.124;2023-07-29T03:29:49;7.32;;;4.03;;
64011;SDS011;50211;52.768;12.124;2023-07-29T03:32:15;7.03;;;4.43;;
64011;SDS011;50211;52.768;12.124;2023-07-29T03:34:40;20.10;;;4.57;;
64011;SDS011;50211;52.768;12.124;2023-07-29T03:37:06;10.60;;;4.78;;
64011;SDS011;50211;52.768;12.124;2023-07-29T03:39:32;5.22;;;4.00;;
64011;SDS011;50211;52.768;12.124;2023-07-29T03:41:57;10.30;;;5.10;;
64011;SDS011;50211;52.768;12.124;2023-07-29T03:44:23;7.82;;;5.10;;
64011;SDS011;50211;52.768;12.124;2023-07-29T03:46:48;9.05;;;5.13;;
64011;SDS011;50211;52.768;12.124;2023-07-29T03:49:14;6.65;;;4.85;;
64011;SDS011;50211;52.768;12.124;2023-07-29T03:51:39;13.90;;;6.05;;
64011;SDS011;50211;52.768;12.124;2023-07-29T03:54:05;8.73;;;5.68;;
64011;SDS011;50211;52.768;12.124;2023-07-29T03:56:31;12.82;;;5.38;;
64011;SDS011;50211;52.768;12.124;2023-07-29T03:59:03;7.93;;;4.88;;
64011;SDS011;50211;52.768;12.124;2023-07-29T04:01:29;9.18;;;5.47;;
64011;SDS011;50211;52.768;12.124;2023-07-29T04:03:55;9.32;;;6.18;;
64011;SDS011;50211;52.768;12.124;2023-07-29T04:06:21;12.93;;;5.95;;
64011;SDS011;50211;52.768;12.124;2023-07-29T04:08:46;8.02;;;5.65;;
64011;SDS011;50211;52.768;12.124;2023-07-29T04:11:12;8.23;;;5.43;;
64011;SDS011;50211;52.768;12.124;2023-07-29T04:13:37;7.13;;;5.40;;
64011;SDS011;50211;52.768;12.124;2023-07-29T04:16:03;9.40;;;6.78;;
64011;SDS011;50211;52.768;12.124;2023-07-29T04:18:29;8.30;;;6.20;;
64011;SDS011;50211;52.768;12.124;2023-07-29T04:20:55;7.25;;;5.63;;
64011;SDS011;50211;52.768;12.124;2023-07-29T04:23:20;7.95;;;5.63;;
64011;SDS011;50211;52.768;12.124;2023-07-29T04:25:46;7.88;;;6.07;;
64011;SDS011;50211;52.768;12.124;2023-07-29T04:28:11;9.32;;;6.18;;
64011;SDS011;50211;52.768;12.124;2023-07-29T04:30:37;11.95;;;6.65;;
64011;SDS011;50211;52.768;12.124;2023-07-29T04:33:03;10.80;;;6.82;;
64011;SDS011;50211;52.768;12.124;2023-07-29T04:35:28;8.45;;;6.30;;
64011;SDS011;50211;52.768;12.124;2023-07-29T04:37:54;11.25;;;6.85;;
64011;SDS011;50211;52.768;12.124;2023-07-29T04:40:20;13.90;;;7.72;;
64011;SDS011;50211;52.768;12.124;2023-07-29T04:42:47;10.05;;;6.90;;
64011;SDS011;50211;52.768;12.124;2023-07-29T04:45:13;10.55;;;6.82;;
64011;SDS011;50211;52.768;12.124;2023-07-29T04:47:39;10.88;;;7.38;;
64011;SDS011;50211;52.768;12.124;2023-07-29T04:50:04;14.25;;;7.15;;
64011;SDS011;50211;52.768;12.124;2023-07-29T04:52:31;10.60;;;7.85;;
64011;SDS011;50211;52.768;12.124;2023-07-29T04:54:56;10.52;;;7.30;;
64011;SDS011;50211;52.768;12.124;2023-07-29T04:57:22;13.38;;;7.57;;
64011;SDS011;50211;52.768;12.124;2023-07-29T04:59:47;9.40;;;6.45;;
64011;SDS011;50211;52.768;12.124;2023-07-29T05:02:13;8.95;;;7.07;;
64011;SDS011;50211;52.768;12.124;2023-07-29T05:04:38;11.70;;;7.50;;
64011;SDS011;50211;52.768;12.124;2023-07-29T05:07:04;12.15;;;7.57;;
64011;SDS011;50211;52.768;12.124;2023-07-29T05:09:30;9.40;;;6.40;;
64011;SDS011;50211;52.768;12.124;2023-07-29T05:11:55;9.38;;;7.07;;
64011;SDS011;50211;52.768;12.124;2023-07-29T05:14:21;12.75;;;7.63;;
64011;SDS011;50211;52.768;12.124;2023-07-29T05:16:46;13.68;;;6.88;;
64011;SDS011;50211;52.768;12.124;2023-07-29T05:19:12;9.30;;;7.28;;
64011;SDS011;50211;52.768;12.124;2023-07-29T05:21:38;10.05;;;7.35;;
64011;SDS011;50211;52.768;12.124;2023-07-29T05:24:04;12.93;;;7.95;;
64011;SDS011;50211;52.768;12.124;2023-07-29T05:26:30;8.85;;;6.32;;
64011;SDS011;50211;52.768;12.124;2023-07-29T05:28:55;12.48;;;7.43;;
64011;SDS011;50211;52.768;12.124;2023-07-29T05:31:21;10.38;;;6.28;;
64011;SDS011;50211;52.768;12.124;2023-07-29T05:33:47;7.80;;;6.47;;
64011;SDS011;50211;52.768;12.124;2023-07-29T05:36:13;11.65;;;6.70;;
64011;SDS011;50211;52.768;12.124;2023-07-29T05:38:39;10.85;;;5.22;;
64011;SDS011;50211;52.768;12.124;2023-07-29T05:41:04;7.25;;;5.43;;
64011;SDS011;50211;52.768;12.124;2023-07-29T05:43:30;7.63;;;5.57;;
64011;SDS011;50211;52.768;12.124;2023-07-29T05:45:55;7.32;;;6.50;;
64011;SDS011;50211;52.768;12.124;2023-07-29T05:48:21;8.25;;;5.78;;
64011;SDS011;50211;52.768;12.124;2023-07-29T05:50:46;9.15;;;6.40;;
64011;SDS011;50211;52.768;12.124;2023-07-29T05:53:13;12.35;;;6.28;;
64011;SDS011;50211;52.768;12.124;2023-07-29T05:55:39;6.97;;;5.47;;
64011;SDS011;50211;52.768;12.124;2023-07-29T05:58:04;5.85;;;4.72;;
64011;SDS011;50211;52.768;12.124;2023-07-29T06:00:30;7.18;;;4.80;;
64011;SDS011;50211;52.768;12.124;2023-07-29T06:02:56;6.00;;;4.20;;
64011;SDS011;50211;52.768;12.124;2023-07-29T06:05:21;7.45;;;4.53;;
64011;SDS011;50211;52.768;12.124;2023-07-29T06:07:47;5.25;;;4.45;;
64011;SDS011;50211;52.768;12.124;2023-07-29T06:10:13;5.40;;;4.63;;
64011;SDS011;50211;52.768;12.124;2023-07-29T06:12:43;6.22;;;4.43;;
64011;SDS011;50211;52.768;12.124;2023-07-29T06:15:09;7.07;;;4.75;;
64011;SDS011;50211;52.768;12.124;2023-07-29T06:17:35;6.47;;;4.32;;
64011;SDS011;50211;52.768;12.124;2023-07-29T06:20:00;5.70;;;4.47;;
64011;SDS011;50211;52.768;12.124;2023-07-29T06:22:26;6.10;;;4.22;;
64011;SDS011;50211;52.768;12.124;2023-07-29T06:24:51;6.25;;;4.45;;
64011;SDS011;50211;52.768;12.124;2023-07-29T06:27:17;5.15;;;4.30;;
64011;SDS011;50211;52.768;12.124;2023-07-29T06:29:42;5.38;;;4.32;;
64011;SDS011;50211;52.768;12.124;2023-07-29T06:32:08;4.70;;;3.95;;
64011;SDS011;50211;52.768;12.124;2023-07-29T06:34:33;5.22;;;3.90;;
64011;SDS011;50211;52.768;12.124;2023-07-29T06:36:59;4.53;;;3.63;;
64011;SDS011;50211;52.768;12.124;2023-07-29T06:39:24;4.75;;;4.20;;
64011;SDS011;50211;52.768;12.124;2023-07-29T06:41:50;8.57;;;4.88;;
64011;SDS011;50211;52.768;12.124;2023-07-29T06:44:15;5.50;;;4.00;;
64011;SDS011;50211;52.768;12.124;2023-07-29T06:46:41;5.40;;;4.32;;
64011;SDS011;50211;52.768;12.124;2023-07-29T06:49:06;5.40;;;4.00;;
64011;SDS011;50211;52.768;12.124;2023-07-29T06:51:32;8.60;;;3.97;;
64011;SDS011;50211;52.768;12.124;2023-07-29T06:54:00;4.15;;;3.75;;
64011;SDS011;50211;52.768;12.124;2023-07-29T06:56:26;5.15;;;3.75;;
64011;SDS011;50211;52.768;12.124;2023-07-29T06:58:51;4.45;;;3.35;;
64011;SDS011;50211;52.768;12.124;2023-07-29T07:01:17;7.28;;;3.70;;
64011;SDS011;50211;52.768;12.124;2023-07-29T07:03:43;7.85;;;3.13;;
64011;SDS011;50211;52.768;12.124;2023-07-29T07:06:08;3.95;;;3.38;;
64011;SDS011;50211;52.768;12.124;2023-07-29T07:08:34;4.85;;;3.38;;
64011;SDS011;50211;52.768;12.124;2023-07-29T07:10:59;6.10;;;3.55;;
64011;SDS011;50211;52.768;12.124;2023-07-29T07:13:25;5.78;;;3.42;;
64011;SDS011;50211;52.768;12.124;2023-07-29T07:15:50;5.80;;;3.47;;
64011;SDS011;50211;52.768;12.124;2023-07-29T07:18:18;6.97;;;3.80;;
64011;SDS011;50211;52.768;12.124;2023-07-29T07:20:47;7.35;;;3.70;;
64011;SDS011;50211;52.768;12.124;2023-07-29T07:23:16;4.53;;;3.28;;
64011;SDS011;50211;52.768;12.124;2023-07-29T07:25:43;3.38;;;3.03;;
64011;SDS011;50211;52.768;12.124;2023-07-29T07:28:08;5.55;;;3.78;;
64011;SDS011;50211;52.768;12.124;2023-07-29T07:30:34;3.75;;;3.20;;
64011;SDS011;50211;52.768;12.124;2023-07-29T07:33:00;4.90;;;3.22;;
64011;SDS011;50211;52.768;12.124;2023-07-29T07:35:25;3.13;;;2.75;;
64011;SDS011;50211;52.768;12.124;2023-07-29T07:37:51;4.95;;;3.38;;
64011;SDS011;50211;52.768;12.124;2023-07-29T07:40:16;5.78;;;3.40;;
64011;SDS011;50211;52.768;12.124;2023-07-29T07:42:42;5.45;;;3.08;;
64011;SDS011;50211;52.768;12.124;2023-07-29T07:45:08;6.68;;;3.47;;
64011;SDS011;50211;52.768;12.124;2023-07-29T07:47:33;6.97;;;3.10;;
64011;SDS011;50211;52.768;12.124;2023-07-29T07:49:59;5.60;;;3.20;;
64011;SDS011;50211;52.768;12.124;2023-07-29T07:52:24;4.80;;;2.83;;
64011;SDS011;50211;52.768;12.124;2023-07-29T07:54:53;7.97;;;2.58;;
64011;SDS011;50211;52.768;12.124;2023-07-29T07:57:22;4.35;;;3.22;;
64011;SDS011;50211;52.768;12.124;2023-07-29T07:59:47;3.80;;;2.95;;
64011;SDS011;50211;52.768;12.124;2023-07-29T08:02:13;4.90;;;2.95;;
64011;SDS011;50211;52.768;12.124;2023-07-29T08:04:39;3.25;;;2.88;;
64011;SDS011;50211;52.768;12.124;2023-07-29T08:07:04;4.30;;;3.38;;
64011;SDS011;50211;52.768;12.124;2023-07-29T08:09:30;5.15;;;3.10;;
64011;SDS011;50211;52.768;12.124;2023-07-29T08:11:55;4.15;;;3.17;;
64011;SDS011;50211;52.768;12.124;2023-07-29T08:14:21;4.22;;;3.40;;
64011;SDS011;50211;52.768;12.124;2023-07-29T08:16:47;5.03;;;3.50;;
64011;SDS011;50211;52.768;12.124;2023-07-29T08:19:12;6.30;;;3.13;;
64011;SDS011;50211;52.768;12.124;2023-07-29T08:21:38;4.05;;;3.60;;
64011;SDS011;50211;52.768;12.124;2023-07-29T08:24:03;6.60;;;3.72;;
64011;SDS011;50211;52.768;12.124;2023-07-29T08:26:29;4.35;;;3.10;;
64011;SDS011;50211;52.768;12.124;2023-07-29T08:28:54;7.30;;;3.53;;
64011;SDS011;50211;52.768;12.124;2023-07-29T08:31:20;7.40;;;3.78;;
64011;SDS011;50211;52.768;12.124;2023-07-29T08:33:45;5.03;;;3.78;;
64011;SDS011;50211;52.768;12.124;2023-07-29T08:36:11;7.20;;;3.30;;
64011;SDS011;50211;52.768;12.124;2023-07-29T08:38:36;3.97;;;3.55;;
64011;SDS011;50211;52.768;12.124;2023-07-29T08:44:21;5.30;;;4.05;;
64011;SDS011;50211;52.768;12.124;2023-07-29T08:46:53;6.60;;;3.80;;
64011;SDS011;50211;52.768;12.124;2023-07-29T08:49:20;7.93;;;3.38;;
64011;SDS011;50211;52.768;12.124;2023-07-29T08:51:48;4.07;;;3.53;;
64011;SDS011;50211;52.768;12.124;2023-07-29T08:54:14;7.13;;;3.13;;
64011;SDS011;50211;52.768;12.124;2023-07-29T08:56:43;5.22;;;3.63;;
64011;SDS011;50211;52.768;12.124;2023-07-29T08:59:10;7.43;;;3.67;;
64011;SDS011;50211;52.768;12.124;2023-07-29T09:01:36;5.43;;;3.80;;
64011;SDS011;50211;52.768;12.124;2023-07-29T09:04:03;6.65;;;3.25;;
64011;SDS011;50211;52.768;12.124;2023-07-29T09:06:28;10.57;;;3.88;;
64011;SDS011;50211;52.768;12.124;2023-07-29T09:08:55;5.80;;;3.88;;
64011;SDS011;50211;52.768;12.124;2023-07-29T09:11:21;4.47;;;3.47;;
64011;SDS011;50211;52.768;12.124;2023-07-29T09:13:47;8.98;;;3.78;;
64011;SDS011;50211;52.768;12.124;2023-07-29T09:16:13;6.43;;;3.83;;
64011;SDS011;50211;52.768;12.124;2023-07-29T09:18:39;8.18;;;4.22;;
64011;SDS011;50211;52.768;12.124;2023-07-29T09:21:04;4.90;;;4.10;;
64011;SDS011;50211;52.768;12.124;2023-07-29T09:23:42;8.93;;;3.83;;
64011;SDS011;50211;52.768;12.124;2023-07-29T09:26:09;4.78;;;3.58;;
64011;SDS011;50211;52.768;12.124;2023-07-29T09:28:38;9.75;;;3.72;;
64011;SDS011;50211;52.768;12.124;2023-07-29T09:31:05;5.53;;;3.72;;
64011;SDS011;50211;52.768;12.124;2023-07-29T09:33:34;6.70;;;3.88;;
64011;SDS011;50211;52.768;12.124;2023-07-29T09:36:02;9.32;;;3.63;;
64011;SDS011;50211;52.768;12.124;2023-07-29T09:38:36;12.80;;;4.55;;
64011;SDS011;50211;52.768;12.124;2023-07-29T09:41:02;4.13;;;3.63;;
64011;SDS011;50211;52.768;12.124;2023-07-29T09:43:32;5.63;;;4.40;;
64011;SDS011;50211;52.768;12.124;2023-07-29T09:46:02;9.98;;;4.30;;
64011;SDS011;50211;52.768;12.124;2023-07-29T09:48:32;6.82;;;3.75;;
64011;SDS011;50211;52.768;12.124;2023-07-29T09:50:59;5.07;;;4.22;;
64011;SDS011;50211;52.768;12.124;2023-07-29T09:53:33;6.40;;;4.38;;
64011;SDS011;50211;52.768;12.124;2023-07-29T09:56:07;6.93;;;4.10;;
64011;SDS011;50211;52.768;12.124;2023-07-29T09:58:33;8.68;;;4.70;;
64011;SDS011;50211;52.768;12.124;2023-07-29T10:01:00;6.88;;;4.50;;
64011;SDS011;50211;52.768;12.124;2023-07-29T10:03:26;7.90;;;4.18;;
64011;SDS011;50211;52.768;12.124;2023-07-29T10:05:52;11.07;;;4.20;;
64011;SDS011;50211;52.768;12.124;2023-07-29T10:08:18;10.15;;;3.75;;
64011;SDS011;50211;52.768;12.124;2023-07-29T10:10:45;8.27;;;3.90;;
64011;SDS011;50211;52.768;12.124;2023-07-29T10:13:10;4.43;;;3.75;;
64011;SDS011;50211;52.768;12.124;2023-07-29T10:15:37;6.53;;;4.30;;
64011;SDS011;50211;52.768;12.124;2023-07-29T10:18:03;5.38;;;4.10;;
64011;SDS011;50211;52.768;12.124;2023-07-29T10:20:32;8.32;;;4.22;;
64011;SDS011;50211;52.768;12.124;2023-07-29T10:23:00;5.18;;;4.22;;
64011;SDS011;50211;52.768;12.124;2023-07-29T10:25:29;6.05;;;3.85;;
64011;SDS011;50211;52.768;12.124;2023-07-29T10:28:06;7.28;;;4.03;;
64011;SDS011;50211;52.768;12.124;2023-07-29T10:30:32;5.38;;;3.47;;
64011;SDS011;50211;52.768;12.124;2023-07-29T10:32:59;3.85;;;3.40;;
64011;SDS011;50211;52.768;12.124;2023-07-29T10:35:27;3.58;;;3.28;;
64011;SDS011;50211;52.768;12.124;2023-07-29T10:37:53;5.03;;;3.30;;
64011;SDS011;50211;52.768;12.124;2023-07-29T10:40:20;8.80;;;3.30;;
64011;SDS011;50211;52.768;12.124;2023-07-29T10:43:00;7.65;;;3.22;;
64011;SDS011;50211;52.768;12.124;2023-07-29T10:45:39;3.33;;;3.00;;
64011;SDS011;50211;52.768;12.124;2023-07-29T10:48:06;6.15;;;3.28;;
64011;SDS011;50211;52.768;12.124;2023-07-29T10:50:35;4.55;;;3.83;;
64011;SDS011;50211;52.768;12.124;2023-07-29T10:53:01;7.70;;;4.15;;
64011;SDS011;50211;52.768;12.124;2023-07-29T10:55:27;5.13;;;3.97;;
64011;SDS011;50211;52.768;12.124;2023-07-29T10:58:31;6.22;;;4.35;;
64011;SDS011;50211;52.768;12.124;2023-07-29T11:00:49;6.03;;;4.60;;
64011;SDS011;50211;52.768;12.124;2023-07-29T11:03:15;7.60;;;4.20;;
64011;SDS011;50211;52.768;12.124;2023-07-29T11:05:47;7.45;;;4.72;;
64011;SDS011;50211;52.768;12.124;2023-07-29T11:10:44;6.43;;;4.22;;
64011;SDS011;50211;52.768;12.124;2023-07-29T11:13:25;8.43;;;3.25;;
64011;SDS011;50211;52.768;12.124;2023-07-29T11:15:51;5.18;;;3.30;;
64011;SDS011;50211;52.768;12.124;2023-07-29T11:18:18;2.78;;;2.40;;
64011;SDS011;50211;52.768;12.124;2023-07-29T11:20:45;5.07;;;2.58;;
64011;SDS011;50211;52.768;12.124;2023-07-29T11:23:12;3.50;;;2.72;;
64011;SDS011;50211;52.768;12.124;2023-07-29T11:25:38;3.08;;;2.78;;
64011;SDS011;50211;52.768;12.124;2023-07-29T11:28:04;5.13;;;2.75;;
64011;SDS011;50211;52.768;12.124;2023-07-29T11:30:29;3.53;;;2.83;;
64011;SDS011;50211;52.768;12.124;2023-07-29T11:32:56;3.40;;;2.28;;
64011;SDS011;50211;52.768;12.124;2023-07-29T11:35:22;2.97;;;2.38;;
64011;SDS011;50211;52.768;12.124;2023-07-29T11:37:49;3.30;;;2.53;;
64011;SDS011;50211;52.768;12.124;2023-07-29T11:40:17;4.80;;;2.35;;
64011;SDS011;50211;52.768;12.124;2023-07-29T11:42:47;2.42;;;2.10;;
64011;SDS011;50211;52.768;12.124;2023-07-29T11:45:15;2.90;;;2.47;;
64011;SDS011;50211;52.768;12.124;2023-07-29T11:47:41;2.97;;;2.67;;
64011;SDS011;50211;52.768;12.124;2023-07-29T11:50:08;2.78;;;2.15;;
64011;SDS011;50211;52.768;12.124;2023-07-29T11:52:35;2.20;;;2.00;;
64011;SDS011;50211;52.768;12.124;2023-07-29T11:55:01;3.45;;;2.83;;
64011;SDS011;50211;52.768;12.124;2023-07-29T11:57:29;3.30;;;2.25;;
64011;SDS011;50211;52.768;12.124;2023-07-29T11:59:55;3.83;;;2.42;;
64011;SDS011;50211;52.768;12.124;2023-07-29T12:02:21;3.45;;;2.22;;
64011;SDS011;50211;52.768;12.124;2023-07-29T12:04:48;2.15;;;1.90;;
64011;SDS011;50211;52.768;12.124;2023-07-29T12:07:14;3.42;;;1.90;;
64011;SDS011;50211;52.768;12.124;2023-07-29T12:09:42;1.75;;;1.63;;
64011;SDS011;50211;52.768;12.124;2023-07-29T12:12:08;1.65;;;1.50;;
64011;SDS011;50211;52.768;12.124;2023-07-29T12:14:34;1.55;;;1.45;;
64011;SDS011;50211;52.768;12.124;2023-07-29T12:17:00;1.95;;;1.40;;
64011;SDS011;50211;52.768;12.124;2023-07-29T12:19:31;3.35;;;1.67;;
64011;SDS011;50211;52.768;12.124;2023-07-29T12:22:01;2.20;;;1.58;;
64011;SDS011;50211;52.768;12.124;2023-07-29T12:24:29;1.70;;;1.52;;
64011;SDS011;50211;52.768;12.124;2023-07-29T12:27:00;1.73;;;1.60;;
64011;SDS011;50211;52.768;12.124;2023-07-29T12:29:26;3.90;;;2.47;;
64011;SDS011;50211;52.768;12.124;2023-07-29T12:32:02;3.08;;;1.58;;
64011;SDS011;50211;52.768;12.124;2023-07-29T12:34:29;3.85;;;2.20;;
64011;SDS011;50211;52.768;12.124;2023-07-29T12:36:56;4.28;;;2.10;;
64011;SDS011;50211;52.768;12.124;2023-07-29T12:41:53;1.52;;;1.38;;
64011;SDS011;50211;52.768;12.124;2023-07-29T12:44:19;3.47;;;1.30;;
64011;SDS011;50211;52.768;12.124;2023-07-29T12:46:45;1.70;;;1.52;;
64011;SDS011;50211;52.768;12.124;2023-07-29T12:49:11;1.80;;;1.42;;
64011;SDS011;50211;52.768;12.124;2023-07-29T12:51:36;2.25;;;1.48;;
64011;SDS011;50211;52.768;12.124;2023-07-29T12:54:03;2.28;;;1.50;;
64011;SDS011;50211;52.768;12.124;2023-07-29T12:56:29;1.55;;;1.38;;
64011;SDS011;50211;52.768;12.124;2023-07-29T12:58:56;4.28;;;1.73;;
64011;SDS011;50211;52.768;12.124;2023-07-29T13:01:23;1.60;;;1.50;;
64011;SDS011;50211;52.768;12.124;2023-07-29T13:03:48;1.77;;;1.67;;
64011;SDS011;50211;52.768;12.124;2023-07-29T13:06:14;1.92;;;1.83;;
64011;SDS011;50211;52.768;12.124;2023-07-29T13:08:40;2.08;;;1.90;;
64011;SDS011;50211;52.768;12.124;2023-07-29T13:11:06;2.30;;;2.10;;
64011;SDS011;50211;52.768;12.124;2023-07-29T13:13:32;2.42;;;1.70;;
64011;SDS011;50211;52.768;12.124;2023-07-29T13:15:57;3.75;;;2.15;;
64011;SDS011;50211;52.768;12.124;2023-07-29T13:18:23;2.40;;;2.20;;
64011;SDS011;50211;52.768;12.124;2023-07-29T13:20:48;3.15;;;2.10;;
64011;SDS011;50211;52.768;12.124;2023-07-29T13:23:14;2.38;;;2.17;;
64011;SDS011;50211;52.768;12.124;2023-07-29T13:25:40;4.43;;;2.50;;
64011;SDS011;50211;52.768;12.124;2023-07-29T13:28:06;3.60;;;3.30;;
64011;SDS011;50211;52.768;12.124;2023-07-29T13:30:33;3.60;;;2.72;;
64011;SDS011;50211;52.768;12.124;2023-07-29T13:32:58;2.53;;;2.33;;
64011;SDS011;50211;52.768;12.124;2023-07-29T13:35:24;3.10;;;2.00;;
64011;SDS011;50211;52.768;12.124;2023-07-29T13:37:49;3.50;;;2.28;;
64011;SDS011;50211;52.768;12.124;2023-07-29T13:40:15;2.65;;;2.45;;
64011;SDS011;50211;52.768;12.124;2023-07-29T13:42:40;3.78;;;2.42;;
64011;SDS011;50211;52.768;12.124;2023-07-29T13:45:06;3.55;;;2.28;;
64011;SDS011;50211;52.768;12.124;2023-07-29T13:47:32;2.78;;;2.30;;
64011;SDS011;50211;52.768;12.124;2023-07-29T13:49:57;4.75;;;1.88;;
64011;SDS011;50211;52.768;12.124;2023-07-29T13:52:24;2.10;;;1.90;;
64011;SDS011;50211;52.768;12.124;2023-07-29T13:54:49;2.10;;;1.90;;
64011;SDS011;50211;52.768;12.124;2023-07-29T13:57:14;2.80;;;1.83;;
64011;SDS011;50211;52.768;12.124;2023-07-29T13:59:40;2.65;;;1.92;;
64011;SDS011;50211;52.768;12.124;2023-07-29T14:02:05;2.83;;;1.75;;
64011;SDS011;50211;52.768;12.124;2023-07-29T14:04:34;2.25;;;1.77;;
64011;SDS011;50211;52.768;12.124;2023-07-29T14:07:00;2.40;;;1.85;;
64011;SDS011;50211;52.768;12.124;2023-07-29T14:09:26;3.38;;;2.30;;
64011;SDS011;50211;52.768;12.124;2023-07-29T14:11:51;2.40;;;2.20;;
64011;SDS011;50211;52.768;12.124;2023-07-29T14:14:17;3.20;;;2.50;;
64011;SDS011;50211;52.768;12.124;2023-07-29T14:16:42;3.38;;;2.50;;
64011;SDS011;50211;52.768;12.124;2023-07-29T14:19:08;3.03;;;2.65;;
64011;SDS011;50211;52.768;12.124;2023-07-29T14:21:33;3.28;;;2.35;;
64011;SDS011;50211;52.768;12.124;2023-07-29T14:23:59;4.45;;;3.08;;
64011;SDS011;50211;52.768;12.124;2023-07-29T14:26:25;3.92;;;2.70;;
64011;SDS011;50211;52.768;12.124;2023-07-29T14:28:50;3.95;;;2.95;;
64011;SDS011;50211;52.768;12.124;2023-07-29T14:31:16;2.92;;;2.42;;
64011;SDS011;50211;52.768;12.124;2023-07-29T14:33:44;3.22;;;2.20;;
64011;SDS011;50211;52.768;12.124;2023-07-29T14:36:10;4.18;;;2.50;;
64011;SDS011;50211;52.768;12.124;2023-07-29T14:38:36;7.75;;;3.33;;
64011;SDS011;50211;52.768;12.124;2023-07-29T14:41:02;3.85;;;2.70;;
64011;SDS011;50211;52.768;12.124;2023-07-29T14:43:28;3.22;;;2.50;;
64011;SDS011;50211;52.768;12.124;2023-07-29T14:45:53;2.72;;;2.10;;